Jefferson, Louisiana
Current Conditions -  °F | °C
As of 10:53 PM on Wednesday 26 Nov 2014 (Local Time) from KMSY Reporting Station
Clear Clear  
Wind Chill: 13°   Ceiling: Unl
Heat Index: 13°   Visibility: 10mi
Dew Point:   Wind: 13mph
Humidity: 75%   Direction: 250°WSW
Pressure: 30.27"   Gusts: NA
Location:  29.96°N, 90.17°W
Report Text: KMSY 270453Z 25011KT 10SM CLR 13/09 A3027 RMK AO2 SLP252 T01330089
Loading
Personal Weather Stations






























Interactive Weather Map New forecast layout! Learn more

10-Day Weather Forecast

Advertisements
Track Severe Weather on mobile